Latest Coastal Weather Observations for Low Isles

IDQ60701

Issued at 11:21 am EST Sunday 26 March 2017 (issued every 10 minutes, with the page automatically refreshed every 10 minutes)

About coastal observations | Map of coastal stations | Coastal observations for QLD | Marine services | Other Formats
Station Details ID: 031037 Name: LOW ISLES LIGHTHOUSE Lat: -16.38 Lon: 145.56 Height: 2.9 m
Data from the previous 72 hours. | See also: Recent months at Low Isles
Date/Time
EST
Temp
°C
Wind Pressure Rain since
9am
mm
Weather Cloud Vis
km
Sea
Height
m
Swell
Dir  Spd
kts
Gust
kts
hPa Trend Height
m
Period
s
Dir
26/11:00am 31.1 WNW 5 6 1008.7 - 0.0 - - - - - - -
26/10:30am 29.6 W 6 7 1009.2 - 0.0 - - - - - - -
26/10:00am 29.4 W 5 6 1009.5 - 0.0 - - - - - - -
26/09:30am 28.6 W 9 10 1009.5 - 0.0 - - - - - - -
26/09:00am 28.4 W 9 11 1009.5 - 0.0 - - - - - - -
26/08:30am 28.3 W 7 9 1009.7 - 0.0 - - - - - - -
26/08:00am 28.1 WSW 8 9 1009.4 - 0.0 - - - - - - -
26/07:30am 27.9 W 8 9 1008.9 - 0.0 - - - - - - -
26/07:00am 27.9 W 9 11 1008.7 - 0.0 - - - - - - -
26/06:30am 27.7 W 10 12 1008.4 - 0.0 - - - - - - -
26/06:00am 27.6 W 10 12 1007.9 - 0.0 - - - - - - -
26/05:30am 27.9 SW 9 10 1007.6 - 0.0 - - - - - - -
26/05:00am 27.7 WSW 9 10 1007.7 - 0.0 - - - - - - -
26/04:30am 27.3 WSW 10 11 1007.5 - 0.0 - - - - - - -
26/04:00am 28.2 SW 9 11 1007.4 - 0.0 - - - - - - -
26/03:30am 27.8 SSW 8 10 1007.4 - 0.0 - - - - - - -
26/03:00am 27.5 SW 8 9 1007.4 - 0.0 - - - - - - -
26/02:30am 27.4 SW 9 10 1007.8 - 0.0 - - - - - - -
26/02:00am 27.6 WSW 10 11 1008.1 - 0.0 - - - - - - -
26/01:30am 27.8 WSW 10 12 1008.3 - 0.0 - - - - - - -
26/01:00am 28.0 WSW 12 13 1008.6 - 0.0 - - - - - - -
26/12:30am 28.0 WSW 11 13 1009.1 - 0.0 - - - - - - -
26/12:00am 28.7 S 10 12 1009.3 - 0.0 - - - - - - -
 
Date/Time
EST
Temp
°C
Wind Pressure Rain since
9am
mm
Weather Cloud Vis
km
Sea
Height
m
Swell
Dir  Spd
kts
Gust
kts
hPa Trend Height
m
Period
s
Dir
25/11:30pm 28.8 S 10 12 1009.5 - 0.0 - - - - - - -
25/11:00pm 28.9 S 10 12 1009.7 - 0.0 - - - - - - -
25/10:30pm 29.3 SSE 13 16 1009.6 - 0.0 - - - - - - -
25/10:00pm 29.1 SSE 13 17 1009.7 - 0.0 - - - - - - -
25/09:30pm 29.3 SSE 14 18 1009.4 - 0.0 - - - - - - -
25/09:00pm 29.5 SSE 16 18 1009.1 - 0.0 - - - - - - -
25/08:30pm 29.4 SE 16 19 1009.1 - 0.0 - - - - - - -
25/08:00pm 29.4 SE 19 20 1008.9 - 0.0 - - - - - - -
25/07:30pm 29.6 SE 19 22 1008.6 - 0.0 - - - - - - -
25/07:00pm 29.5 SE 19 22 1008.2 - 0.0 - - - - - - -
25/06:30pm 29.4 SE 19 22 1007.7 - 0.0 - - - - - - -
25/06:00pm 29.5 SE 19 24 1007.1 - 0.0 - - - - - - -
25/05:30pm 29.4 ESE 18 22 1006.9 - 0.0 - - - - - - -
25/05:00pm 29.6 ESE 19 24 1006.9 - 0.0 - - - - - - -
25/04:30pm 29.8 ESE 15 21 1006.9 - 0.0 - - - - - - -
25/04:00pm 30.0 SE 18 22 1006.5 - 0.0 - - - - - - -
25/03:30pm 30.7 SE 17 21 1006.2 - 0.0 - - - - - - -
25/03:00pm 30.8 SE 16 18 1006.4 - 0.0 - - - - - - -
25/02:30pm 31.5 SE 13 17 1006.8 - 0.0 - - - - - - -
25/02:00pm 32.0 SE 7 9 1007.1 - 0.0 - - - - - - -
25/01:30pm 31.3 SSE 9 12 1007.4 - 0.0 - - - - - - -
25/01:00pm 31.5 SSE 9 10 1007.7 - 0.0 - - - - - - -
25/12:30pm 31.9 SE 9 11 1008.3 - 0.0 - - - - - - -
25/12:00pm 31.5 SSE 10 13 1008.7 - 0.0 - - - - - - -
25/11:30am 31.3 SSE 5 6 1009.2 - 0.0 - - - - - - -
25/11:00am 30.3 S 6 8 1009.8 - 0.0 - - - - - - -
25/10:30am 30.2 S 4 6 1009.9 - 0.0 - - - - - - -
25/10:00am 29.4 SSW 3 4 1010.0 - 0.0 - - - - - - -
25/09:30am 28.5 SW 3 5 1010.1 - 0.0 - - - - - - -
25/09:00am 28.1 W 3 5 1009.7 - 27.4 Haze Mostly cloudy 10 - - - -
25/08:30am 27.6 W 3 5 1009.3 - 27.4 - - - - - - -
25/08:00am 27.7 WSW 4 5 1009.0 - 27.4 - - - - - - -
25/07:30am 27.4 S 7 9 1008.6 - 27.4 - - - - - - -
25/07:00am 27.4 S 8 10 1008.2 - 27.4 - - - - - - -
25/06:30am 27.4 S 10 12 1007.6 - 27.4 - - - - - - -
25/06:00am 27.5 S 11 13 1007.0 - 27.4 - - - - - - -
25/05:30am 27.5 S 11 13 1007.0 - 27.4 - - - - - - -
25/05:00am 27.3 SSE 11 13 1006.8 - 27.4 - - - - - - -
25/04:30am 26.9 SSE 8 10 1006.8 - 27.4 - - - - - - -
25/04:00am 26.9 SSE 8 11 1007.0 - 27.4 - - - - - - -
25/03:30am 26.8 SSE 9 10 1007.4 - 27.4 - - - - - - -
25/03:00am 26.6 S 8 11 1007.8 - 27.4 - - - - - - -
25/02:30am 26.1 S 6 7 1008.0 - 27.4 - - - - - - -
25/02:00am 26.1 S 5 7 1008.4 - 27.4 - - - - - - -
25/01:30am 26.5 SW 6 7 1009.0 - 27.4 - - - - - - -
25/01:00am 26.5 WSW 7 9 1009.3 - 27.4 - - - - - - -
25/12:30am 26.1 S 9 11 1009.6 - 27.4 - - - - - - -
25/12:00am 26.0 S 9 11 1009.8 - 27.4 - - - - - - -
 
Date/Time
EST
Temp
°C
Wind Pressure Rain since
9am
mm
Weather Cloud Vis
km
Sea
Height
m
Swell
Dir  Spd
kts
Gust
kts
hPa Trend Height
m
Period
s
Dir
24/11:30pm 25.8 S 9 11 1009.9 - 27.4 - - - - - - -
24/11:00pm 26.3 S 10 12 1010.4 - 27.2 - - - - - - -
24/10:30pm 26.3 SSE 10 11 1010.6 - 26.6 - - - - - - -
24/10:00pm 26.3 SSE 12 14 1010.3 - 26.6 - - - - - - -
24/09:30pm 26.4 SSE 14 17 1010.0 - 26.4 - - - - - - -
24/09:00pm 26.3 SSE 15 18 1009.5 - 26.4 - - - - - - -
24/08:30pm 26.4 SSE 21 26 1009.5 - 25.4 - - - - - - -
24/08:18pm 26.5 SE 20 25 1009.4 - 24.8 - - - - - - -
24/08:00pm 25.9 SE 10 13 1009.3 - 21.8 - - - - - - -
24/07:30pm 27.5 SE 8 16 1008.8 - 1.0 - - - - - - -
24/07:00pm 27.1 ESE 6 8 1008.7 - 0.8 - - - - - - -
24/06:30pm 27.1 E 6 7 1008.3 - 0.8 - - - - - - -
24/06:00pm 27.2 E 8 11 1008.0 - 0.8 - - - - - - -
24/05:30pm 27.2 ESE 8 11 1007.8 - 0.8 - - - - - - -
24/05:00pm 27.3 ESE 9 11 1007.5 - 0.8 - - - - - - -
24/04:30pm 27.6 ESE 11 14 1007.0 - 0.8 - - - - - - -
24/04:00pm 27.3 E 11 14 1007.1 - 0.8 - - - - - - -
24/03:30pm 27.2 ESE 15 19 1007.0 - 0.8 - - - - - - -
24/03:00pm 27.4 ESE 15 19 1006.7 - 0.8 - - - - - - -
24/02:30pm 30.6 E 10 18 1007.0 - 0.0 - - - - - - -
24/02:00pm 30.5 ESE 12 15 1007.4 - 0.0 - - - - - - -
24/01:30pm 30.7 ESE 15 19 1007.2 - 0.0 - - - - - - -
24/01:00pm 30.7 ESE 13 17 1007.7 - 0.0 - - - - - - -
24/12:30pm 31.1 ESE 15 19 1008.2 - 0.0 - - - - - - -
24/12:00pm 30.2 SE 14 18 1008.6 - 0.0 - - - - - - -
24/11:30am 30.5 SE 11 13 1009.0 - 0.0 - - - - - - -
24/11:00am 29.9 ESE 11 14 1009.4 - 0.0 - - - - - - -
24/10:30am 29.2 SE 13 16 1009.6 - 0.0 - - - - - - -
24/10:00am 29.2 SE 11 13 1009.8 - 0.0 - - - - - - -
24/09:30am 28.4 SSW 5 6 1009.9 - 0.0 - - - - - - -
24/09:00am 27.9 WSW 6 7 1009.5 - 3.4 Distant precip. Mostly cloudy 25 - - - -
24/08:30am 27.8 WSW 9 11 1009.2 - 3.4 - - - - - - -
24/08:00am 27.9 S 6 7 1009.1 - 3.4 - - - - - - -
24/07:30am 26.7 SE 5 8 1008.8 - 3.4 - - - - - - -
24/07:00am 26.3 SSE 5 7 1008.4 - 3.4 - - - - - - -
24/06:30am 26.1 ESE 4 5 1008.0 - 3.4 - - - - - - -
24/06:00am 26.3 SSE 4 6 1007.8 - 3.4 - - - - - - -
24/05:30am 27.0 S 7 8 1007.8 - 3.4 - - - - - - -
24/05:00am 27.1 SE 12 15 1007.8 - 3.4 - - - - - - -
24/04:30am 27.0 SE 10 12 1007.7 - 3.4 - - - - - - -
24/04:00am 27.3 SSE 5 6 1008.0 - 3.4 - - - - - - -
24/03:30am 27.5 SW 8 11 1007.8 - 3.4 - - - - - - -
24/03:00am 27.4 WSW 7 9 1007.8 - 3.4 - - - - - - -
24/02:30am 27.2 WSW 7 10 1007.9 - 3.4 - - - - - - -
24/02:00am 27.0 W 6 7 1008.2 - 3.4 - - - - - - -
24/01:30am 27.2 W 6 8 1008.8 - 3.4 - - - - - - -
24/01:00am 27.0 W 9 10 1008.8 - 3.4 - - - - - - -
24/12:30am 26.7 W 6 8 1009.2 - 3.4 - - - - - - -
24/12:00am 27.1 W 9 10 1009.2 - 2.4 - - - - - - -
 
Date/Time
EST
Temp
°C
Wind Pressure Rain since
9am
mm
Weather Cloud Vis
km
Sea
Height
m
Swell
Dir  Spd
kts
Gust
kts
hPa Trend Height
m
Period
s
Dir
23/11:30pm 27.1 W 10 12 1009.3 - 2.4 - - - - - - -
23/11:00pm 26.4 WNW 7 9 1009.4 - 2.4 - - - - - - -
23/10:30pm 26.0 NNW 9 12 1009.5 - 2.4 - - - - - - -
23/10:00pm 26.1 WNW 6 8 1010.1 - 2.4 - - - - - - -
23/09:30pm 27.3 W 12 14 1010.1 - 0.6 - - - - - - -
23/09:00pm 27.7 W 9 12 1009.7 - 0.0 - - - - - - -
23/08:30pm 28.0 ENE 8 13 1009.2 - 0.0 - - - - - - -
23/08:00pm 28.3 SE 10 13 1009.0 - 0.0 - - - - - - -
23/07:30pm 28.7 SE 10 11 1008.6 - 0.0 - - - - - - -
23/07:00pm 28.7 NNE 8 11 1008.4 - 0.0 - - - - - - -
23/06:30pm 28.8 N 9 12 1008.3 - 0.0 - - - - - - -
23/06:00pm 29.3 S 5 8 1007.9 - 0.0 - - - - - - -
23/05:30pm 29.9 SE 7 8 1007.6 - 0.0 - - - - - - -
23/05:00pm 30.0 SSE 9 11 1007.2 - 0.0 - - - - - - -
23/04:30pm 30.4 SE 8 10 1007.0 - 0.0 - - - - - - -
23/04:00pm 30.7 ESE 5 8 1006.4 - 0.0 - - - - - - -
23/03:30pm 32.2 E 4 6 1006.6 - 0.0 - - - - - - -
23/03:00pm 32.2 ENE 5 7 1006.9 - 0.0 - - - - - - -
23/02:30pm 33.5 NE 5 7 1007.0 - 0.0 - - - - - - -
23/02:00pm 33.1 ENE 8 10 1006.8 - 0.0 - - - - - - -
23/01:30pm 32.5 ENE 7 9 1007.7 - 0.0 - - - - - - -
23/01:00pm 32.6 ENE 7 9 1007.9 - 0.0 - - - - - - -
23/12:30pm 32.2 E 6 10 1008.2 - 0.0 - - - - - - -
23/12:00pm 31.7 E 5 8 1008.6 - 0.0 - - - - - - -
23/11:30am 31.5 E 5 6 1009.3 - 0.0 - - - - - - -

Other Formats:

Comma delimited format used in spreadsheet applications
http://www.bom.gov.au/fwo/IDQ60701/IDQ60701.94285.axf

JavaScript Object Notation format (JSON) in row-major order
http://www.bom.gov.au/fwo/IDQ60701/IDQ60701.94285.json